sensor_id;sensor_type;location;lat;lon;timestamp;temperature;humidity
4223;DHT22;2125;51.436;14.138;2023-02-18T00:01:37;8.20;76.80
4223;DHT22;2125;51.436;14.138;2023-02-18T00:04:03;8.20;76.70
4223;DHT22;2125;51.436;14.138;2023-02-18T00:06:32;8.20;76.50
4223;DHT22;2125;51.436;14.138;2023-02-18T00:08:59;8.10;76.80
4223;DHT22;2125;51.436;14.138;2023-02-18T00:11:29;8.10;77.00
4223;DHT22;2125;51.436;14.138;2023-02-18T00:13:58;8.10;76.80
4223;DHT22;2125;51.436;14.138;2023-02-18T00:16:26;8.00;77.30
4223;DHT22;2125;51.436;14.138;2023-02-18T00:18:54;8.00;77.00
4223;DHT22;2125;51.436;14.138;2023-02-18T00:21:20;7.90;76.70
4223;DHT22;2125;51.436;14.138;2023-02-18T00:23:47;7.90;75.80
4223;DHT22;2125;51.436;14.138;2023-02-18T00:26:16;7.90;75.90
4223;DHT22;2125;51.436;14.138;2023-02-18T00:28:47;7.90;76.60
4223;DHT22;2125;51.436;14.138;2023-02-18T00:31:17;7.80;76.10
4223;DHT22;2125;51.436;14.138;2023-02-18T00:33:44;7.80;75.60
4223;DHT22;2125;51.436;14.138;2023-02-18T00:36:12;7.80;75.40
4223;DHT22;2125;51.436;14.138;2023-02-18T00:38:43;7.80;76.20
4223;DHT22;2125;51.436;14.138;2023-02-18T00:41:10;7.70;74.80
4223;DHT22;2125;51.436;14.138;2023-02-18T00:43:37;7.70;76.00
4223;DHT22;2125;51.436;14.138;2023-02-18T00:46:05;7.60;75.60
4223;DHT22;2125;51.436;14.138;2023-02-18T00:48:32;7.60;76.50
4223;DHT22;2125;51.436;14.138;2023-02-18T00:50:59;7.60;76.50
4223;DHT22;2125;51.436;14.138;2023-02-18T00:53:27;7.50;77.00
4223;DHT22;2125;51.436;14.138;2023-02-18T00:55:53;7.40;77.10
4223;DHT22;2125;51.436;14.138;2023-02-18T00:58:20;7.40;77.70
4223;DHT22;2125;51.436;14.138;2023-02-18T01:00:48;7.40;77.30
4223;DHT22;2125;51.436;14.138;2023-02-18T01:03:16;7.40;76.80
4223;DHT22;2125;51.436;14.138;2023-02-18T01:05:43;7.40;77.80
4223;DHT22;2125;51.436;14.138;2023-02-18T01:08:10;7.30;77.60
4223;DHT22;2125;51.436;14.138;2023-02-18T01:10:41;7.20;78.60
4223;DHT22;2125;51.436;14.138;2023-02-18T01:13:08;7.20;78.70
4223;DHT22;2125;51.436;14.138;2023-02-18T01:15:36;7.20;79.20
4223;DHT22;2125;51.436;14.138;2023-02-18T01:18:03;7.10;79.70
4223;DHT22;2125;51.436;14.138;2023-02-18T01:20:31;7.00;79.90
4223;DHT22;2125;51.436;14.138;2023-02-18T01:22:57;7.00;79.80
4223;DHT22;2125;51.436;14.138;2023-02-18T01:25:24;7.10;80.30
4223;DHT22;2125;51.436;14.138;2023-02-18T01:27:51;7.00;80.40
4223;DHT22;2125;51.436;14.138;2023-02-18T01:30:18;7.00;80.60
4223;DHT22;2125;51.436;14.138;2023-02-18T01:32:45;7.00;80.40
4223;DHT22;2125;51.436;14.138;2023-02-18T01:35:14;7.00;81.30
4223;DHT22;2125;51.436;14.138;2023-02-18T01:37:42;6.90;80.70
4223;DHT22;2125;51.436;14.138;2023-02-18T01:40:12;6.90;81.10
4223;DHT22;2125;51.436;14.138;2023-02-18T01:42:40;6.90;80.70
4223;DHT22;2125;51.436;14.138;2023-02-18T01:48:13;6.80;81.10
4223;DHT22;2125;51.436;14.138;2023-02-18T01:50:44;6.70;81.20
4223;DHT22;2125;51.436;14.138;2023-02-18T01:53:15;6.70;80.80
4223;DHT22;2125;51.436;14.138;2023-02-18T01:55:44;6.70;80.50
4223;DHT22;2125;51.436;14.138;2023-02-18T01:58:12;6.80;79.90
4223;DHT22;2125;51.436;14.138;2023-02-18T02:00:40;6.70;80.30
4223;DHT22;2125;51.436;14.138;2023-02-18T02:03:06;6.70;79.70
4223;DHT22;2125;51.436;14.138;2023-02-18T02:05:34;6.70;79.80
4223;DHT22;2125;51.436;14.138;2023-02-18T02:08:02;6.70;79.40
4223;DHT22;2125;51.436;14.138;2023-02-18T02:10:46;6.70;79.30
4223;DHT22;2125;51.436;14.138;2023-02-18T02:13:19;6.60;79.50
4223;DHT22;2125;51.436;14.138;2023-02-18T02:15:54;6.60;79.80
4223;DHT22;2125;51.436;14.138;2023-02-18T02:18:35;6.50;80.10
4223;DHT22;2125;51.436;14.138;2023-02-18T02:24:22;6.40;80.80
4223;DHT22;2125;51.436;14.138;2023-02-18T02:27:05;6.40;80.50
4223;DHT22;2125;51.436;14.138;2023-02-18T02:30:10;6.50;80.20
4223;DHT22;2125;51.436;14.138;2023-02-18T02:32:56;6.40;80.10
4223;DHT22;2125;51.436;14.138;2023-02-18T02:35:33;6.40;79.90
4223;DHT22;2125;51.436;14.138;2023-02-18T02:38:04;6.50;79.60
4223;DHT22;2125;51.436;14.138;2023-02-18T02:40:37;6.50;79.60
4223;DHT22;2125;51.436;14.138;2023-02-18T02:46:18;6.40;79.90
4223;DHT22;2125;51.436;14.138;2023-02-18T02:48:48;6.40;80.00
4223;DHT22;2125;51.436;14.138;2023-02-18T02:51:24;6.40;80.00
4223;DHT22;2125;51.436;14.138;2023-02-18T02:53:53;6.40;79.90
4223;DHT22;2125;51.436;14.138;2023-02-18T02:56:23;6.40;80.00
4223;DHT22;2125;51.436;14.138;2023-02-18T02:58:56;6.40;79.80
4223;DHT22;2125;51.436;14.138;2023-02-18T03:01:32;6.40;79.60
4223;DHT22;2125;51.436;14.138;2023-02-18T03:04:12;6.40;79.90
4223;DHT22;2125;51.436;14.138;2023-02-18T03:07:07;6.50;79.20
4223;DHT22;2125;51.436;14.138;2023-02-18T03:09:45;6.60;79.50
4223;DHT22;2125;51.436;14.138;2023-02-18T03:12:18;6.60;78.70
4223;DHT22;2125;51.436;14.138;2023-02-18T03:14:55;6.70;78.30
4223;DHT22;2125;51.436;14.138;2023-02-18T03:17:28;6.60;78.80
4223;DHT22;2125;51.436;14.138;2023-02-18T03:19:59;6.60;78.60
4223;DHT22;2125;51.436;14.138;2023-02-18T03:22:38;6.70;78.20
4223;DHT22;2125;51.436;14.138;2023-02-18T03:25:06;6.80;77.80
4223;DHT22;2125;51.436;14.138;2023-02-18T03:27:38;6.80;77.70
4223;DHT22;2125;51.436;14.138;2023-02-18T03:30:10;6.80;77.80
4223;DHT22;2125;51.436;14.138;2023-02-18T03:32:40;6.80;78.10
4223;DHT22;2125;51.436;14.138;2023-02-18T03:35:11;6.90;78.20
4223;DHT22;2125;51.436;14.138;2023-02-18T03:37:42;6.90;78.20
4223;DHT22;2125;51.436;14.138;2023-02-18T03:40:11;6.90;77.90
4223;DHT22;2125;51.436;14.138;2023-02-18T03:42:38;7.00;77.50
4223;DHT22;2125;51.436;14.138;2023-02-18T03:45:05;7.00;77.50
4223;DHT22;2125;51.436;14.138;2023-02-18T03:47:32;7.00;77.20
4223;DHT22;2125;51.436;14.138;2023-02-18T03:50:00;7.00;77.40
4223;DHT22;2125;51.436;14.138;2023-02-18T03:52:27;7.00;77.30
4223;DHT22;2125;51.436;14.138;2023-02-18T03:55:03;7.00;76.70
4223;DHT22;2125;51.436;14.138;2023-02-18T03:57:30;7.10;77.00
4223;DHT22;2125;51.436;14.138;2023-02-18T03:59:57;7.10;76.50
4223;DHT22;2125;51.436;14.138;2023-02-18T04:02:23;7.20;76.30
4223;DHT22;2125;51.436;14.138;2023-02-18T04:04:50;7.20;76.20
4223;DHT22;2125;51.436;14.138;2023-02-18T04:07:16;7.20;76.20
4223;DHT22;2125;51.436;14.138;2023-02-18T04:09:43;7.20;75.70
4223;DHT22;2125;51.436;14.138;2023-02-18T04:12:11;7.20;75.30
4223;DHT22;2125;51.436;14.138;2023-02-18T04:14:37;7.20;76.40
4223;DHT22;2125;51.436;14.138;2023-02-18T04:17:05;7.20;76.90
4223;DHT22;2125;51.436;14.138;2023-02-18T04:19:31;7.20;76.90
4223;DHT22;2125;51.436;14.138;2023-02-18T04:21:58;7.10;76.60
4223;DHT22;2125;51.436;14.138;2023-02-18T04:24:25;7.10;76.50
4223;DHT22;2125;51.436;14.138;2023-02-18T04:26:51;7.20;75.50
4223;DHT22;2125;51.436;14.138;2023-02-18T04:29:19;7.20;76.30
4223;DHT22;2125;51.436;14.138;2023-02-18T04:31:46;7.20;75.80
4223;DHT22;2125;51.436;14.138;2023-02-18T04:34:12;7.20;76.30
4223;DHT22;2125;51.436;14.138;2023-02-18T04:36:39;7.20;76.00
4223;DHT22;2125;51.436;14.138;2023-02-18T04:39:06;7.20;76.00
4223;DHT22;2125;51.436;14.138;2023-02-18T04:41:32;7.20;76.70
4223;DHT22;2125;51.436;14.138;2023-02-18T04:43:59;7.20;76.60
4223;DHT22;2125;51.436;14.138;2023-02-18T04:46:27;7.20;76.90
4223;DHT22;2125;51.436;14.138;2023-02-18T04:48:53;7.20;77.10
4223;DHT22;2125;51.436;14.138;2023-02-18T04:51:20;7.20;77.40
4223;DHT22;2125;51.436;14.138;2023-02-18T04:53:47;7.20;77.90
4223;DHT22;2125;51.436;14.138;2023-02-18T04:56:13;7.20;77.90
4223;DHT22;2125;51.436;14.138;2023-02-18T04:58:40;7.30;78.00
4223;DHT22;2125;51.436;14.138;2023-02-18T05:01:06;7.30;77.40
4223;DHT22;2125;51.436;14.138;2023-02-18T05:03:34;7.30;77.40
4223;DHT22;2125;51.436;14.138;2023-02-18T05:06:01;7.40;76.90
4223;DHT22;2125;51.436;14.138;2023-02-18T05:08:28;7.40;78.00
4223;DHT22;2125;51.436;14.138;2023-02-18T05:10:55;7.40;77.60
4223;DHT22;2125;51.436;14.138;2023-02-18T05:13:22;7.40;78.00
4223;DHT22;2125;51.436;14.138;2023-02-18T05:15:50;7.40;78.40
4223;DHT22;2125;51.436;14.138;2023-02-18T05:18:17;7.40;78.10
4223;DHT22;2125;51.436;14.138;2023-02-18T05:20:46;7.50;78.30
4223;DHT22;2125;51.436;14.138;2023-02-18T05:23:12;7.50;78.80
4223;DHT22;2125;51.436;14.138;2023-02-18T05:25:39;7.50;78.80
4223;DHT22;2125;51.436;14.138;2023-02-18T05:28:06;7.50;79.50
4223;DHT22;2125;51.436;14.138;2023-02-18T05:30:32;7.40;79.40
4223;DHT22;2125;51.436;14.138;2023-02-18T05:33:00;7.40;79.20
4223;DHT22;2125;51.436;14.138;2023-02-18T05:35:27;7.50;79.40
4223;DHT22;2125;51.436;14.138;2023-02-18T05:37:55;7.50;79.60
4223;DHT22;2125;51.436;14.138;2023-02-18T05:40:22;7.50;79.70
4223;DHT22;2125;51.436;14.138;2023-02-18T05:42:48;7.60;80.20
4223;DHT22;2125;51.436;14.138;2023-02-18T05:45:15;7.60;80.00
4223;DHT22;2125;51.436;14.138;2023-02-18T05:47:41;7.60;80.20
4223;DHT22;2125;51.436;14.138;2023-02-18T05:50:08;7.60;80.30
4223;DHT22;2125;51.436;14.138;2023-02-18T05:52:36;7.60;80.20
4223;DHT22;2125;51.436;14.138;2023-02-18T05:55:04;7.60;80.80
4223;DHT22;2125;51.436;14.138;2023-02-18T05:57:31;7.70;80.60
4223;DHT22;2125;51.436;14.138;2023-02-18T05:59:58;7.70;80.90
4223;DHT22;2125;51.436;14.138;2023-02-18T06:02:24;7.60;80.90
4223;DHT22;2125;51.436;14.138;2023-02-18T06:04:51;7.60;81.20
4223;DHT22;2125;51.436;14.138;2023-02-18T06:07:17;7.60;80.60
4223;DHT22;2125;51.436;14.138;2023-02-18T06:09:45;7.70;80.80
4223;DHT22;2125;51.436;14.138;2023-02-18T06:12:13;7.80;80.00
4223;DHT22;2125;51.436;14.138;2023-02-18T06:14:40;7.80;80.20
4223;DHT22;2125;51.436;14.138;2023-02-18T06:17:07;7.70;80.20
4223;DHT22;2125;51.436;14.138;2023-02-18T06:19:34;7.80;80.00
4223;DHT22;2125;51.436;14.138;2023-02-18T06:22:00;7.80;79.60
4223;DHT22;2125;51.436;14.138;2023-02-18T06:24:27;7.80;80.00
4223;DHT22;2125;51.436;14.138;2023-02-18T06:26:53;7.90;79.90
4223;DHT22;2125;51.436;14.138;2023-02-18T06:29:21;7.90;79.70
4223;DHT22;2125;51.436;14.138;2023-02-18T06:31:48;7.90;80.20
4223;DHT22;2125;51.436;14.138;2023-02-18T06:34:15;7.90;80.00
4223;DHT22;2125;51.436;14.138;2023-02-18T06:36:41;7.90;80.00
4223;DHT22;2125;51.436;14.138;2023-02-18T06:39:08;7.90;80.30
4223;DHT22;2125;51.436;14.138;2023-02-18T06:41:34;7.90;80.40
4223;DHT22;2125;51.436;14.138;2023-02-18T06:44:01;7.90;80.80
4223;DHT22;2125;51.436;14.138;2023-02-18T06:46:29;7.90;81.40
4223;DHT22;2125;51.436;14.138;2023-02-18T06:48:56;7.90;81.40
4223;DHT22;2125;51.436;14.138;2023-02-18T06:51:22;7.90;80.90
4223;DHT22;2125;51.436;14.138;2023-02-18T06:53:49;7.90;81.40
4223;DHT22;2125;51.436;14.138;2023-02-18T06:56:16;7.90;81.70
4223;DHT22;2125;51.436;14.138;2023-02-18T06:58:43;7.90;82.20
4223;DHT22;2125;51.436;14.138;2023-02-18T07:01:09;7.80;82.00
4223;DHT22;2125;51.436;14.138;2023-02-18T07:03:37;7.80;82.40
4223;DHT22;2125;51.436;14.138;2023-02-18T07:06:05;7.80;82.90
4223;DHT22;2125;51.436;14.138;2023-02-18T07:08:32;7.70;83.00
4223;DHT22;2125;51.436;14.138;2023-02-18T07:11:00;7.70;83.60
4223;DHT22;2125;51.436;14.138;2023-02-18T07:13:27;7.70;83.80
4223;DHT22;2125;51.436;14.138;2023-02-18T07:15:54;7.70;84.00
4223;DHT22;2125;51.436;14.138;2023-02-18T07:18:20;7.70;84.40
4223;DHT22;2125;51.436;14.138;2023-02-18T07:20:49;7.60;85.10
4223;DHT22;2125;51.436;14.138;2023-02-18T07:23:15;7.40;85.80
4223;DHT22;2125;51.436;14.138;2023-02-18T07:25:42;7.30;86.10
4223;DHT22;2125;51.436;14.138;2023-02-18T07:28:09;7.20;86.40
4223;DHT22;2125;51.436;14.138;2023-02-18T07:30:35;7.20;86.30
4223;DHT22;2125;51.436;14.138;2023-02-18T07:33:02;7.10;86.20
4223;DHT22;2125;51.436;14.138;2023-02-18T07:35:28;7.00;86.10
4223;DHT22;2125;51.436;14.138;2023-02-18T07:37:56;7.00;85.90
4223;DHT22;2125;51.436;14.138;2023-02-18T07:40:23;7.00;85.60
4223;DHT22;2125;51.436;14.138;2023-02-18T07:42:49;7.00;85.30
4223;DHT22;2125;51.436;14.138;2023-02-18T07:45:16;7.00;85.00
4223;DHT22;2125;51.436;14.138;2023-02-18T07:47:43;7.00;84.60
4223;DHT22;2125;51.436;14.138;2023-02-18T07:50:10;7.00;84.40
4223;DHT22;2125;51.436;14.138;2023-02-18T07:52:37;7.00;84.10
4223;DHT22;2125;51.436;14.138;2023-02-18T07:55:07;7.00;83.70
4223;DHT22;2125;51.436;14.138;2023-02-18T07:57:34;7.00;83.60
4223;DHT22;2125;51.436;14.138;2023-02-18T08:00:22;7.00;83.40
4223;DHT22;2125;51.436;14.138;2023-02-18T08:02:48;7.10;83.10
4223;DHT22;2125;51.436;14.138;2023-02-18T08:05:15;7.10;82.80
4223;DHT22;2125;51.436;14.138;2023-02-18T08:07:41;7.10;82.60
4223;DHT22;2125;51.436;14.138;2023-02-18T08:10:10;7.10;82.50
4223;DHT22;2125;51.436;14.138;2023-02-18T08:12:36;7.20;82.30
4223;DHT22;2125;51.436;14.138;2023-02-18T08:15:03;7.20;82.20
4223;DHT22;2125;51.436;14.138;2023-02-18T08:17:30;7.20;82.20
4223;DHT22;2125;51.436;14.138;2023-02-18T08:19:57;7.30;82.00
4223;DHT22;2125;51.436;14.138;2023-02-18T08:22:23;7.20;82.10
4223;DHT22;2125;51.436;14.138;2023-02-18T08:24:53;7.20;81.90
4223;DHT22;2125;51.436;14.138;2023-02-18T08:27:22;7.30;81.60
4223;DHT22;2125;51.436;14.138;2023-02-18T08:29:49;7.30;81.50
4223;DHT22;2125;51.436;14.138;2023-02-18T08:32:15;7.40;81.40
4223;DHT22;2125;51.436;14.138;2023-02-18T08:34:42;7.40;81.40
4223;DHT22;2125;51.436;14.138;2023-02-18T08:37:10;7.40;81.30
4223;DHT22;2125;51.436;14.138;2023-02-18T08:39:38;7.40;81.30
4223;DHT22;2125;51.436;14.138;2023-02-18T08:42:05;7.50;81.30
4223;DHT22;2125;51.436;14.138;2023-02-18T08:44:32;7.50;81.20
4223;DHT22;2125;51.436;14.138;2023-02-18T08:47:00;7.60;81.30
4223;DHT22;2125;51.436;14.138;2023-02-18T08:49:28;7.60;81.30
4223;DHT22;2125;51.436;14.138;2023-02-18T08:51:55;7.60;81.30
4223;DHT22;2125;51.436;14.138;2023-02-18T08:54:22;7.60;81.30
4223;DHT22;2125;51.436;14.138;2023-02-18T08:56:49;7.50;81.40
4223;DHT22;2125;51.436;14.138;2023-02-18T09:01:56;7.50;81.40
